Time;durP1;ratioP1;P1;durP2;ratioP2;P2;SDS_P1;SDS_P2;PMS_P1;PMS_P2;Temp;Humidity;BMP_temperature;BMP_pressure;BME280_temperature;BME280_humidity;BME280_pressure;Samples;Min_cycle;Max_cycle;Signal;HPM_P1;HPM_P2
2023/09/07 00:01:47;;;;;;;4.47;2.10;;;;;;;;;;4984792;28;20090;-74
2023/09/07 00:04:13;;;;;;;4.95;2.17;;;;;;;;;;4985905;28;20380;-73
2023/09/07 00:06:44;;;;;;;4.90;2.15;;;;;;;;;;4985510;28;20104;-73
2023/09/07 00:09:15;;;;;;;2.92;1.95;;;;;;;;;;4986025;28;20030;-73
2023/09/07 00:11:41;;;;;;;3.00;2.13;;;;;;;;;;4986272;28;20172;-74
2023/09/07 00:14:08;;;;;;;4.25;2.08;;;;;;;;;;4986793;28;20377;-73
2023/09/07 00:16:35;;;;;;;3.65;2.00;;;;;;;;;;4981719;28;20531;-73
2023/09/07 00:19:02;;;;;;;3.08;1.90;;;;;;;;;;4978437;28;20037;-74
2023/09/07 00:21:28;;;;;;;4.82;2.10;;;;;;;;;;4973150;28;20556;-74
2023/09/07 00:23:55;;;;;;;3.97;2.20;;;;;;;;;;4980059;28;20113;-74
2023/09/07 00:26:21;;;;;;;3.38;2.15;;;;;;;;;;4982673;28;20118;-73
2023/09/07 00:28:47;;;;;;;4.47;2.20;;;;;;;;;;4980584;28;20113;-74
2023/09/07 00:31:13;;;;;;;6.60;2.25;;;;;;;;;;4978447;28;20109;-74
2023/09/07 00:33:39;;;;;;;4.43;2.30;;;;;;;;;;4987658;28;20472;-74
2023/09/07 00:36:05;;;;;;;4.57;1.80;;;;;;;;;;4982833;28;20070;-74
2023/09/07 00:38:31;;;;;;;5.72;2.10;;;;;;;;;;4985398;28;20357;-74
2023/09/07 00:40:57;;;;;;;2.65;1.92;;;;;;;;;;4997932;28;20018;-74
2023/09/07 00:43:23;;;;;;;4.90;2.25;;;;;;;;;;4977570;28;20054;-74
2023/09/07 00:45:50;;;;;;;4.38;1.88;;;;;;;;;;4982359;28;20034;-74
2023/09/07 00:48:16;;;;;;;3.20;2.33;;;;;;;;;;4989991;28;20456;-74
2023/09/07 00:50:43;;;;;;;3.30;1.98;;;;;;;;;;4986024;28;20052;-74
2023/09/07 00:53:09;;;;;;;2.63;2.08;;;;;;;;;;4984435;28;20073;-74
2023/09/07 00:55:36;;;;;;;8.85;2.50;;;;;;;;;;4984479;28;20026;-74
2023/09/07 00:58:03;;;;;;;4.72;2.17;;;;;;;;;;4979490;28;20018;-74
2023/09/07 01:00:29;;;;;;;4.47;2.38;;;;;;;;;;4985480;28;20038;-75
2023/09/07 01:02:55;;;;;;;5.82;2.55;;;;;;;;;;4985713;28;20018;-74
2023/09/07 01:05:34;;;;;;;4.82;2.30;;;;;;;;;;4983757;28;20034;-74
2023/09/07 01:08:04;;;;;;;3.22;2.10;;;;;;;;;;4985470;28;20472;-74
2023/09/07 01:10:30;;;;;;;3.50;1.80;;;;;;;;;;4988053;28;20034;-74
2023/09/07 01:12:56;;;;;;;5.90;2.15;;;;;;;;;;4990007;28;20046;-74
2023/09/07 01:15:22;;;;;;;7.70;2.58;;;;;;;;;;4979963;28;20135;-74
2023/09/07 01:17:48;;;;;;;3.38;1.80;;;;;;;;;;4981819;28;20039;-73
2023/09/07 01:20:17;;;;;;;6.82;2.03;;;;;;;;;;4978595;28;20061;-73
2023/09/07 01:22:43;;;;;;;3.15;2.35;;;;;;;;;;4975494;28;20058;-73
2023/09/07 01:25:09;;;;;;;6.32;2.30;;;;;;;;;;4983601;28;20042;-73
2023/09/07 01:27:35;;;;;;;3.38;2.13;;;;;;;;;;4984797;28;20061;-73
2023/09/07 01:30:05;;;;;;;7.10;1.98;;;;;;;;;;4973820;28;20141;-74
2023/09/07 01:32:31;;;;;;;6.95;2.28;;;;;;;;;;4980153;28;20038;-74
2023/09/07 01:34:58;;;;;;;5.97;2.10;;;;;;;;;;4981431;28;20042;-74
2023/09/07 01:37:24;;;;;;;4.45;2.13;;;;;;;;;;4978298;28;20037;-74
2023/09/07 01:39:50;;;;;;;2.75;2.08;;;;;;;;;;4982195;28;20034;-74
2023/09/07 01:42:16;;;;;;;4.57;2.50;;;;;;;;;;4994561;28;20061;-73
2023/09/07 01:44:43;;;;;;;6.18;1.90;;;;;;;;;;4988494;28;20040;-74
2023/09/07 01:47:09;;;;;;;3.00;2.42;;;;;;;;;;4986490;28;20030;-74
2023/09/07 01:49:35;;;;;;;2.97;2.20;;;;;;;;;;4985871;28;20361;-73
2023/09/07 01:52:01;;;;;;;3.38;2.35;;;;;;;;;;4980889;28;20489;-74
2023/09/07 01:54:27;;;;;;;2.45;2.20;;;;;;;;;;4983183;28;20035;-74
2023/09/07 01:56:53;;;;;;;2.97;2.05;;;;;;;;;;4988502;28;20037;-75
2023/09/07 01:59:19;;;;;;;4.93;2.47;;;;;;;;;;4990257;28;20607;-74
2023/09/07 02:01:45;;;;;;;2.83;2.50;;;;;;;;;;4978417;28;20030;-74
2023/09/07 02:04:11;;;;;;;6.13;2.35;;;;;;;;;;4985485;28;20117;-73
2023/09/07 02:06:37;;;;;;;2.45;2.10;;;;;;;;;;4980990;28;20038;-73
2023/09/07 02:09:04;;;;;;;4.90;2.65;;;;;;;;;;4985700;28;20046;-74
2023/09/07 02:11:30;;;;;;;2.55;2.10;;;;;;;;;;4986300;28;20037;-73
2023/09/07 02:13:56;;;;;;;5.13;2.78;;;;;;;;;;4978225;28;20034;-73
2023/09/07 02:16:22;;;;;;;4.30;2.30;;;;;;;;;;4988110;28;20031;-73
2023/09/07 02:18:49;;;;;;;7.45;3.08;;;;;;;;;;4983744;28;20475;-74
2023/09/07 02:21:15;;;;;;;5.97;2.67;;;;;;;;;;4984650;28;20377;-73
2023/09/07 02:23:41;;;;;;;3.17;2.20;;;;;;;;;;4976416;28;20038;-73
2023/09/07 02:26:07;;;;;;;6.35;2.30;;;;;;;;;;4992483;28;20055;-73
2023/09/07 02:28:33;;;;;;;4.50;2.25;;;;;;;;;;4976407;28;20188;-73
2023/09/07 02:31:03;;;;;;;6.18;2.50;;;;;;;;;;4980900;28;20555;-74
2023/09/07 02:33:29;;;;;;;4.35;2.47;;;;;;;;;;4980748;28;20052;-73
2023/09/07 02:35:55;;;;;;;2.53;2.20;;;;;;;;;;4979308;28;20077;-74
2023/09/07 02:38:21;;;;;;;4.18;1.90;;;;;;;;;;4979289;28;20043;-74
2023/09/07 02:40:48;;;;;;;5.25;2.60;;;;;;;;;;4980881;28;20568;-74
2023/09/07 02:43:14;;;;;;;3.85;2.20;;;;;;;;;;4980511;28;20038;-74
2023/09/07 02:45:40;;;;;;;13.15;3.03;;;;;;;;;;4977576;28;20438;-73
2023/09/07 02:48:06;;;;;;;6.60;2.45;;;;;;;;;;4996985;28;20485;-73
2023/09/07 02:50:33;;;;;;;2.53;2.33;;;;;;;;;;4982916;28;20038;-73
2023/09/07 02:53:00;;;;;;;2.58;2.30;;;;;;;;;;4983755;28;20039;-73
2023/09/07 02:55:26;;;;;;;7.68;2.55;;;;;;;;;;4985524;28;20104;-74
2023/09/07 02:57:53;;;;;;;4.75;2.50;;;;;;;;;;4998554;28;20041;-74
2023/09/07 03:00:19;;;;;;;3.88;2.17;;;;;;;;;;4978699;28;20034;-74
2023/09/07 03:02:45;;;;;;;5.65;2.53;;;;;;;;;;4983318;28;20026;-74
2023/09/07 03:05:11;;;;;;;4.78;2.65;;;;;;;;;;4982511;28;20049;-74
2023/09/07 03:07:39;;;;;;;3.92;2.08;;;;;;;;;;4980852;28;20042;-73
2023/09/07 03:10:05;;;;;;;3.72;2.35;;;;;;;;;;4971228;28;20034;-74
2023/09/07 03:12:31;;;;;;;5.65;2.28;;;;;;;;;;4980146;28;20100;-73
2023/09/07 03:14:57;;;;;;;6.72;2.40;;;;;;;;;;4982241;28;20458;-74
2023/09/07 03:17:23;;;;;;;3.88;2.38;;;;;;;;;;4985406;28;20085;-73
2023/09/07 03:19:49;;;;;;;2.55;1.92;;;;;;;;;;4980820;28;20050;-74
2023/09/07 03:22:15;;;;;;;4.63;2.33;;;;;;;;;;4985118;28;20030;-73
2023/09/07 03:24:41;;;;;;;4.15;2.38;;;;;;;;;;4983578;28;20029;-73
2023/09/07 03:27:07;;;;;;;3.92;2.58;;;;;;;;;;4984203;28;20043;-73
2023/09/07 03:29:35;;;;;;;4.25;2.45;;;;;;;;;;4986264;28;20523;-74
2023/09/07 03:32:01;;;;;;;3.55;2.30;;;;;;;;;;4996303;28;20073;-74
2023/09/07 03:34:27;;;;;;;7.60;2.20;;;;;;;;;;4988801;28;20034;-74
2023/09/07 03:36:53;;;;;;;3.78;2.53;;;;;;;;;;4984683;28;20183;-73
2023/09/07 03:39:22;;;;;;;8.27;2.55;;;;;;;;;;4981248;28;20035;-74
2023/09/07 03:41:48;;;;;;;6.35;2.40;;;;;;;;;;4996902;28;20397;-75
2023/09/07 03:44:14;;;;;;;2.72;2.17;;;;;;;;;;4986378;28;20030;-74
2023/09/07 03:46:40;;;;;;;5.35;1.92;;;;;;;;;;4975578;28;20086;-74
2023/09/07 03:49:06;;;;;;;3.10;2.47;;;;;;;;;;4987728;28;20114;-74
2023/09/07 03:51:33;;;;;;;2.63;2.42;;;;;;;;;;4987932;28;20039;-74
2023/09/07 03:53:59;;;;;;;3.42;2.03;;;;;;;;;;5004737;28;21016;-74
2023/09/07 03:56:25;;;;;;;5.90;2.85;;;;;;;;;;4987205;28;20027;-74
2023/09/07 03:58:51;;;;;;;4.68;3.20;;;;;;;;;;4993110;28;20121;-74
2023/09/07 04:01:17;;;;;;;4.72;3.10;;;;;;;;;;4983310;28;20027;-74
2023/09/07 04:03:43;;;;;;;4.00;2.90;;;;;;;;;;4983306;28;20249;-75
2023/09/07 04:06:09;;;;;;;11.93;3.22;;;;;;;;;;4988485;28;20041;-74
2023/09/07 04:08:35;;;;;;;4.82;2.90;;;;;;;;;;4987073;28;20392;-74
2023/09/07 04:11:07;;;;;;;3.65;2.70;;;;;;;;;;4984467;28;20039;-75
2023/09/07 04:13:33;;;;;;;8.18;3.10;;;;;;;;;;4981337;28;20113;-74
2023/09/07 04:15:59;;;;;;;3.63;2.85;;;;;;;;;;4998634;28;20069;-75
2023/09/07 04:18:25;;;;;;;7.57;3.53;;;;;;;;;;4983416;28;20592;-75
2023/09/07 04:20:51;;;;;;;8.07;3.40;;;;;;;;;;4983146;28;20038;-77
2023/09/07 04:23:17;;;;;;;6.88;3.90;;;;;;;;;;4986769;28;20117;-73
2023/09/07 04:25:43;;;;;;;3.97;3.22;;;;;;;;;;4984086;28;20139;-76
2023/09/07 04:28:09;;;;;;;6.28;4.70;;;;;;;;;;4987640;28;20066;-76
2023/09/07 04:30:39;;;;;;;19.45;11.38;;;;;;;;;;4980611;28;20046;-80
2023/09/07 04:33:05;;;;;;;81.18;53.90;;;;;;;;;;4986304;28;20046;-81
2023/09/07 04:35:32;;;;;;;14.45;8.30;;;;;;;;;;4986020;28;20559;-80
2023/09/07 04:37:58;;;;;;;8.60;6.85;;;;;;;;;;4989469;28;20090;-82
2023/09/07 04:40:24;;;;;;;6.70;3.90;;;;;;;;;;4981703;28;20031;-76
2023/09/07 04:42:50;;;;;;;5.65;3.60;;;;;;;;;;4983206;28;20026;-75
2023/09/07 04:45:17;;;;;;;7.35;3.45;;;;;;;;;;4984759;28;20030;-76
2023/09/07 04:47:43;;;;;;;4.82;3.67;;;;;;;;;;4986017;28;20105;-75
2023/09/07 04:50:09;;;;;;;7.53;3.45;;;;;;;;;;4986621;28;20039;-75
2023/09/07 04:52:36;;;;;;;6.32;3.55;;;;;;;;;;4984467;28;20643;-76
2023/09/07 04:55:02;;;;;;;4.45;3.58;;;;;;;;;;4986836;28;20041;-77
2023/09/07 04:57:28;;;;;;;7.90;3.70;;;;;;;;;;4984340;28;20089;-73
2023/09/07 04:59:54;;;;;;;18.33;11.57;;;;;;;;;;4983838;28;20050;-79
2023/09/07 05:02:20;;;;;;;13.68;9.88;;;;;;;;;;4980524;28;20061;-78
2023/09/07 05:04:46;;;;;;;9.70;7.13;;;;;;;;;;4984472;28;20039;-81
2023/09/07 05:07:12;;;;;;;7.45;4.68;;;;;;;;;;4987084;28;20084;-74
2023/09/07 05:09:38;;;;;;;4.05;3.35;;;;;;;;;;4986957;28;20050;-75
2023/09/07 05:12:04;;;;;;;7.78;4.75;;;;;;;;;;4987455;28;20459;-75
2023/09/07 05:14:30;;;;;;;5.53;3.40;;;;;;;;;;4989202;28;20100;-75
2023/09/07 05:16:56;;;;;;;5.15;4.45;;;;;;;;;;4991891;28;20050;-75
2023/09/07 05:19:23;;;;;;;5.43;4.25;;;;;;;;;;4989561;28;20459;-75
2023/09/07 05:21:49;;;;;;;8.25;4.35;;;;;;;;;;4993892;28;20032;-74
2023/09/07 05:24:15;;;;;;;85.05;53.40;;;;;;;;;;4982761;28;20038;-75
2023/09/07 05:26:42;;;;;;;12.27;9.45;;;;;;;;;;4985917;28;20041;-76
2023/09/07 05:29:08;;;;;;;12.30;8.90;;;;;;;;;;4979031;28;20039;-76
2023/09/07 05:31:34;;;;;;;7.80;4.75;;;;;;;;;;4981750;28;20077;-73
2023/09/07 05:34:00;;;;;;;5.40;3.63;;;;;;;;;;4996702;28;20042;-73
2023/09/07 05:36:27;;;;;;;5.93;3.72;;;;;;;;;;4983522;28;20102;-76
2023/09/07 05:38:53;;;;;;;6.13;3.78;;;;;;;;;;4985240;28;20046;-75
2023/09/07 05:41:19;;;;;;;8.48;4.68;;;;;;;;;;4987092;28;20461;-75
2023/09/07 05:43:45;;;;;;;4.68;3.85;;;;;;;;;;4988258;28;20516;-76
2023/09/07 05:46:11;;;;;;;6.95;4.03;;;;;;;;;;4977280;28;20109;-76
2023/09/07 05:48:37;;;;;;;8.23;4.15;;;;;;;;;;4980593;28;20118;-76
2023/09/07 05:51:03;;;;;;;5.50;3.70;;;;;;;;;;4987794;28;20426;-76
2023/09/07 05:53:29;;;;;;;4.40;3.80;;;;;;;;;;4984380;28;20032;-76
2023/09/07 05:55:55;;;;;;;7.55;3.35;;;;;;;;;;4988513;28;20472;-77
2023/09/07 05:58:21;;;;;;;7.28;4.13;;;;;;;;;;4998302;28;20049;-76
2023/09/07 06:00:47;;;;;;;9.77;4.22;;;;;;;;;;4986706;28;20058;-77
2023/09/07 06:03:14;;;;;;;6.45;3.90;;;;;;;;;;4983994;28;20034;-76
2023/09/07 06:05:40;;;;;;;10.20;3.78;;;;;;;;;;4979590;28;20048;-76
2023/09/07 06:08:06;;;;;;;5.95;3.75;;;;;;;;;;4983326;28;20033;-76
2023/09/07 06:10:33;;;;;;;5.90;3.72;;;;;;;;;;4977733;28;20038;-76
2023/09/07 06:12:59;;;;;;;5.88;3.67;;;;;;;;;;4981445;28;20089;-76
2023/09/07 06:15:25;;;;;;;5.15;4.13;;;;;;;;;;4974570;28;20062;-76
2023/09/07 06:17:51;;;;;;;5.55;3.80;;;;;;;;;;4984282;28;20058;-76
2023/09/07 06:20:19;;;;;;;6.30;3.83;;;;;;;;;;4985885;28;20046;-76
2023/09/07 06:22:45;;;;;;;6.40;3.38;;;;;;;;;;4987697;28;20124;-76
2023/09/07 06:25:11;;;;;;;5.90;3.72;;;;;;;;;;4984594;28;20534;-76
2023/09/07 06:27:37;;;;;;;7.35;4.10;;;;;;;;;;4977978;28;20473;-76
2023/09/07 06:30:04;;;;;;;6.50;3.90;;;;;;;;;;4982689;28;20046;-76
2023/09/07 06:32:30;;;;;;;5.88;4.20;;;;;;;;;;4984732;28;20044;-76
2023/09/07 06:34:56;;;;;;;6.47;4.00;;;;;;;;;;4984418;28;20535;-76
2023/09/07 06:37:24;;;;;;;7.60;3.85;;;;;;;;;;4985585;28;20042;-76
2023/09/07 06:39:50;;;;;;;5.65;3.15;;;;;;;;;;5000264;28;20030;-76
2023/09/07 06:42:16;;;;;;;7.90;3.97;;;;;;;;;;4989918;28;20049;-76
2023/09/07 06:44:42;;;;;;;10.48;3.80;;;;;;;;;;4992661;28;20072;-76
2023/09/07 06:47:09;;;;;;;4.80;4.13;;;;;;;;;;4984158;28;20153;-77
2023/09/07 06:49:35;;;;;;;8.73;3.90;;;;;;;;;;4981264;28;20043;-76
2023/09/07 06:52:02;;;;;;;6.93;4.40;;;;;;;;;;4975610;28;20358;-76
2023/09/07 06:54:29;;;;;;;9.38;4.60;;;;;;;;;;4985622;28;20546;-76
2023/09/07 06:56:56;;;;;;;6.75;3.60;;;;;;;;;;4984101;28;20062;-76
2023/09/07 06:59:22;;;;;;;4.25;3.85;;;;;;;;;;4991524;28;20034;-76
2023/09/07 07:01:48;;;;;;;5.85;4.03;;;;;;;;;;4988225;28;20022;-76
2023/09/07 07:04:14;;;;;;;5.70;3.67;;;;;;;;;;4991972;28;20042;-76
2023/09/07 07:06:40;;;;;;;6.30;4.05;;;;;;;;;;4978989;28;20092;-76
2023/09/07 07:09:06;;;;;;;5.82;3.58;;;;;;;;;;4982612;28;20089;-75
2023/09/07 07:11:32;;;;;;;8.05;3.58;;;;;;;;;;4988390;28;20580;-76
2023/09/07 07:13:58;;;;;;;4.78;3.13;;;;;;;;;;4986167;28;20034;-75
2023/09/07 07:16:24;;;;;;;5.78;3.80;;;;;;;;;;4981595;28;20035;-76
2023/09/07 07:18:50;;;;;;;7.43;3.15;;;;;;;;;;4988796;28;20565;-75
2023/09/07 07:21:16;;;;;;;6.13;3.58;;;;;;;;;;4980312;28;20234;-76
2023/09/07 07:23:42;;;;;;;5.20;3.65;;;;;;;;;;4989588;28;20018;-76
2023/09/07 07:26:08;;;;;;;4.03;3.25;;;;;;;;;;4991583;28;20049;-77
2023/09/07 07:28:35;;;;;;;7.45;3.67;;;;;;;;;;4984859;28;20045;-76
2023/09/07 07:31:07;;;;;;;6.28;3.20;;;;;;;;;;4994851;28;20046;-77
2023/09/07 07:33:33;;;;;;;7.75;3.60;;;;;;;;;;4999216;28;20029;-76
2023/09/07 07:35:59;;;;;;;5.40;3.55;;;;;;;;;;4989285;28;20103;-77
2023/09/07 07:38:25;;;;;;;4.38;3.65;;;;;;;;;;4989384;28;20477;-77
2023/09/07 07:40:53;;;;;;;4.45;3.22;;;;;;;;;;4980499;28;20048;-75
2023/09/07 07:43:19;;;;;;;9.95;3.35;;;;;;;;;;4987514;28;20046;-75
2023/09/07 07:45:45;;;;;;;4.45;3.25;;;;;;;;;;4988914;28;20385;-76
2023/09/07 07:48:11;;;;;;;7.75;3.90;;;;;;;;;;4999283;28;20491;-74
2023/09/07 07:50:40;;;;;;;4.57;3.35;;;;;;;;;;4989815;28;20133;-75
2023/09/07 07:53:06;;;;;;;11.93;8.32;;;;;;;;;;4981053;28;20038;-84
2023/09/07 07:55:38;;;;;;;9.30;5.55;;;;;;;;;;4993668;28;20034;-79
2023/09/07 07:58:07;;;;;;;6.93;4.03;;;;;;;;;;4993427;28;20121;-74
2023/09/07 08:00:34;;;;;;;5.35;3.78;;;;;;;;;;4994980;28;20116;-76
2023/09/07 08:03:02;;;;;;;7.85;3.17;;;;;;;;;;4983422;28;20030;-75
2023/09/07 08:05:28;;;;;;;9.57;3.47;;;;;;;;;;4987321;28;20061;-75
2023/09/07 08:07:54;;;;;;;4.15;3.38;;;;;;;;;;4995741;28;20061;-75
2023/09/07 08:10:20;;;;;;;7.53;3.90;;;;;;;;;;4980675;28;20043;-76
2023/09/07 08:12:46;;;;;;;10.50;6.88;;;;;;;;;;4991925;28;20104;-77
2023/09/07 08:15:12;;;;;;;9.80;5.45;;;;;;;;;;4990699;28;20595;-77
2023/09/07 08:17:38;;;;;;;7.00;4.15;;;;;;;;;;4985771;28;20086;-76
2023/09/07 08:20:04;;;;;;;4.95;3.67;;;;;;;;;;4996486;28;20510;-75
2023/09/07 08:22:30;;;;;;;5.05;3.60;;;;;;;;;;4998242;28;20025;-79
2023/09/07 08:24:56;;;;;;;5.13;3.22;;;;;;;;;;4991763;28;20033;-77
2023/09/07 08:27:22;;;;;;;5.38;3.35;;;;;;;;;;4986086;28;20061;-76
2023/09/07 08:29:51;;;;;;;9.25;3.50;;;;;;;;;;4980975;28;20472;-78
2023/09/07 08:32:17;;;;;;;8.75;3.67;;;;;;;;;;4982094;28;20038;-77
2023/09/07 08:34:43;;;;;;;5.28;3.78;;;;;;;;;;4989195;28;20500;-76
2023/09/07 08:37:09;;;;;;;4.00;3.38;;;;;;;;;;4978936;28;20581;-75
2023/09/07 08:39:42;;;;;;;6.13;2.85;;;;;;;;;;4991959;28;20703;-75
2023/09/07 08:42:09;;;;;;;5.85;3.33;;;;;;;;;;4991362;28;20034;-75
2023/09/07 08:44:38;;;;;;;7.50;2.83;;;;;;;;;;4991526;28;20029;-75
2023/09/07 08:47:05;;;;;;;7.18;2.85;;;;;;;;;;4984194;28;20385;-76
2023/09/07 08:49:32;;;;;;;7.15;4.63;;;;;;;;;;4983748;28;20294;-77
2023/09/07 08:51:59;;;;;;;9.55;5.20;;;;;;;;;;4988115;28;20053;-77
2023/09/07 08:54:26;;;;;;;3.30;3.00;;;;;;;;;;4981116;28;20085;-78
2023/09/07 08:56:52;;;;;;;8.30;3.63;;;;;;;;;;4995615;28;20610;-79
2023/09/07 08:59:18;;;;;;;3.80;3.17;;;;;;;;;;4987842;28;20062;-79
2023/09/07 09:01:44;;;;;;;6.90;3.33;;;;;;;;;;4992572;28;20034;-78
2023/09/07 09:04:10;;;;;;;4.43;3.30;;;;;;;;;;4984914;28;20082;-78
2023/09/07 09:06:36;;;;;;;7.03;3.08;;;;;;;;;;4987453;28;20041;-76
2023/09/07 09:09:05;;;;;;;7.45;3.65;;;;;;;;;;4983785;28;20042;-75
2023/09/07 09:11:31;;;;;;;8.75;5.45;;;;;;;;;;4998473;28;20049;-80
2023/09/07 09:13:57;;;;;;;10.00;3.72;;;;;;;;;;4992725;28;20069;-76
2023/09/07 09:16:23;;;;;;;4.40;3.13;;;;;;;;;;4991646;28;20041;-79
2023/09/07 09:18:52;;;;;;;6.28;3.53;;;;;;;;;;4990591;28;20492;-76
2023/09/07 09:21:18;;;;;;;4.90;2.90;;;;;;;;;;4993432;28;20105;-76
2023/09/07 09:23:44;;;;;;;7.22;3.10;;;;;;;;;;4990947;28;20022;-76
2023/09/07 09:26:10;;;;;;;8.05;2.40;;;;;;;;;;4993619;28;20114;-77
2023/09/07 09:28:36;;;;;;;8.23;3.13;;;;;;;;;;4985643;28;20110;-76
2023/09/07 09:31:03;;;;;;;3.72;2.50;;;;;;;;;;4978411;28;20081;-76
2023/09/07 09:33:33;;;;;;;8.50;2.70;;;;;;;;;;4989945;28;20061;-78
2023/09/07 09:35:59;;;;;;;3.75;2.70;;;;;;;;;;4981928;28;20506;-77
2023/09/07 09:38:25;;;;;;;4.90;2.67;;;;;;;;;;4997978;28;20058;-77
2023/09/07 09:40:52;;;;;;;7.78;2.55;;;;;;;;;;4989836;28;20045;-78
2023/09/07 09:43:20;;;;;;;6.70;2.33;;;;;;;;;;4987083;28;20035;-76
2023/09/07 09:45:46;;;;;;;5.53;2.63;;;;;;;;;;4980547;28;20049;-77
2023/09/07 09:48:12;;;;;;;5.05;2.20;;;;;;;;;;4983207;28;20157;-77
2023/09/07 09:50:39;;;;;;;7.40;2.67;;;;;;;;;;4975143;28;20051;-78
2023/09/07 09:53:09;;;;;;;2.50;2.20;;;;;;;;;;4986999;28;20085;-78
2023/09/07 09:55:35;;;;;;;5.85;2.58;;;;;;;;;;4991708;28;20027;-78
2023/09/07 09:58:01;;;;;;;5.07;2.13;;;;;;;;;;4980424;28;20497;-78
2023/09/07 10:00:29;;;;;;;2.80;2.35;;;;;;;;;;4981718;28;20130;-79
2023/09/07 10:02:54;;;;;;;2.95;1.90;;;;;;;;;;4983764;28;20037;-78
2023/09/07 10:05:21;;;;;;;3.50;2.10;;;;;;;;;;4983613;28;20128;-78
2023/09/07 10:07:50;;;;;;;5.53;2.33;;;;;;;;;;4992575;28;20041;-78
2023/09/07 10:10:18;;;;;;;3.03;2.00;;;;;;;;;;4987180;28;20042;-78
2023/09/07 10:12:45;;;;;;;5.13;2.33;;;;;;;;;;4986906;28;20472;-77
2023/09/07 10:15:24;;;;;;;5.53;2.55;;;;;;;;;;4984757;28;20054;-77
2023/09/07 10:17:50;;;;;;;13.40;8.90;;;;;;;;;;4986667;28;20045;-78
2023/09/07 10:20:23;;;;;;;6.25;2.38;;;;;;;;;;4996977;28;20050;-79
2023/09/07 10:22:49;;;;;;;6.80;3.13;;;;;;;;;;5003492;28;20049;-81
2023/09/07 10:25:19;;;;;;;4.57;2.22;;;;;;;;;;4984503;28;20030;-79
2023/09/07 10:27:46;;;;;;;3.00;2.50;;;;;;;;;;4976033;28;20034;-80
2023/09/07 10:30:13;;;;;;;6.43;2.45;;;;;;;;;;4987441;28;20046;-78
2023/09/07 10:32:42;;;;;;;4.50;2.40;;;;;;;;;;4987888;28;20054;-77
2023/09/07 10:35:15;;;;;;;5.78;2.20;;;;;;;;;;5006031;28;20037;-76
2023/09/07 10:37:42;;;;;;;4.40;2.30;;;;;;;;;;4991371;28;20029;-77
2023/09/07 10:40:11;;;;;;;2.30;2.10;;;;;;;;;;5000788;28;20038;-76
2023/09/07 10:42:37;;;;;;;4.32;2.70;;;;;;;;;;4988528;28;20282;-76
2023/09/07 10:45:15;;;;;;;3.92;1.95;;;;;;;;;;5002178;28;20037;-76
2023/09/07 10:47:42;;;;;;;6.05;3.45;;;;;;;;;;4991302;28;20052;-76
2023/09/07 10:50:09;;;;;;;2.85;1.95;;;;;;;;;;4994207;28;20038;-77
2023/09/07 10:52:35;;;;;;;7.07;2.38;;;;;;;;;;4991479;28;20442;-76
2023/09/07 10:55:01;;;;;;;5.97;2.33;;;;;;;;;;4995915;28;20088;-77
2023/09/07 10:57:27;;;;;;;2.25;2.05;;;;;;;;;;5007982;28;20034;-79
2023/09/07 10:59:55;;;;;;;2.72;2.03;;;;;;;;;;4986542;28;20177;-76
2023/09/07 11:02:21;;;;;;;6.80;4.63;;;;;;;;;;4975898;28;20069;-83
2023/09/07 11:04:47;;;;;;;4.00;2.58;;;;;;;;;;4993722;28;20030;-82
2023/09/07 11:07:13;;;;;;;5.93;2.38;;;;;;;;;;4999656;28;20109;-83
2023/09/07 11:09:43;;;;;;;2.92;1.80;;;;;;;;;;5002550;28;20034;-84
2023/09/07 11:12:12;;;;;;;3.28;2.35;;;;;;;;;;4993146;28;20038;-88
2023/09/07 11:14:39;;;;;;;8.00;2.13;;;;;;;;;;4995967;28;20053;-88
2023/09/07 11:17:05;;;;;;;6.03;2.08;;;;;;;;;;4989952;28;20043;-83
2023/09/07 11:19:34;;;;;;;4.43;1.80;;;;;;;;;;4982814;28;20108;-82
2023/09/07 11:22:00;;;;;;;3.55;2.15;;;;;;;;;;4988740;28;20380;-83
2023/09/07 11:24:26;;;;;;;7.32;2.25;;;;;;;;;;4990082;28;20555;-83
2023/09/07 11:26:52;;;;;;;7.45;2.30;;;;;;;;;;4994628;28;20162;-86
2023/09/07 11:29:19;;;;;;;5.03;2.28;;;;;;;;;;4984349;28;20121;-84
2023/09/07 11:31:45;;;;;;;9.63;2.60;;;;;;;;;;4974717;28;20231;-81
2023/09/07 11:34:12;;;;;;;4.65;2.45;;;;;;;;;;4981757;28;20030;-80
2023/09/07 11:36:38;;;;;;;3.33;2.20;;;;;;;;;;4985751;28;20124;-77
2023/09/07 11:39:12;;;;;;;15.07;11.75;;;;;;;;;;4981663;28;20077;-86
2023/09/07 11:41:39;;;;;;;3.20;2.47;;;;;;;;;;4984640;28;20037;-93
2023/09/07 11:44:05;;;;;;;4.85;2.25;;;;;;;;;;4979133;28;20062;-90
2023/09/07 11:46:31;;;;;;;4.00;2.22;;;;;;;;;;4989075;28;20650;-87
2023/09/07 11:48:57;;;;;;;3.97;2.40;;;;;;;;;;4973817;28;20155;-80
2023/09/07 11:51:23;;;;;;;5.50;2.63;;;;;;;;;;4999098;28;20054;-73
2023/09/07 11:53:49;;;;;;;5.72;2.20;;;;;;;;;;4991671;28;20035;-73
2023/09/07 11:56:15;;;;;;;5.03;2.30;;;;;;;;;;4985631;28;20025;-73
2023/09/07 11:58:43;;;;;;;4.85;2.10;;;;;;;;;;4985648;28;20294;-73
2023/09/07 12:01:09;;;;;;;10.40;2.58;;;;;;;;;;4988384;28;20465;-73
2023/09/07 12:03:35;;;;;;;7.78;2.53;;;;;;;;;;4989274;28;20062;-73
2023/09/07 12:06:02;;;;;;;3.80;2.25;;;;;;;;;;4989495;28;20508;-73
2023/09/07 12:08:28;;;;;;;3.67;2.35;;;;;;;;;;4987276;28;20503;-73
2023/09/07 12:10:54;;;;;;;5.03;3.15;;;;;;;;;;4990257;28;20133;-73
2023/09/07 12:13:20;;;;;;;3.75;2.03;;;;;;;;;;4986573;28;20106;-73
2023/09/07 12:15:46;;;;;;;4.13;2.53;;;;;;;;;;4990293;28;20058;-73
2023/09/07 12:18:12;;;;;;;6.53;2.40;;;;;;;;;;4981909;28;20491;-73
2023/09/07 12:20:38;;;;;;;7.45;2.50;;;;;;;;;;4982567;28;20503;-73
2023/09/07 12:23:04;;;;;;;2.60;2.15;;;;;;;;;;4981413;28;20035;-72
2023/09/07 12:25:32;;;;;;;6.60;2.40;;;;;;;;;;4987946;28;20492;-73
2023/09/07 12:27:58;;;;;;;3.45;2.10;;;;;;;;;;4988909;28;20034;-73
2023/09/07 12:30:24;;;;;;;8.18;2.30;;;;;;;;;;4986591;28;20030;-73
2023/09/07 12:32:50;;;;;;;3.85;2.00;;;;;;;;;;4988943;28;20062;-73
2023/09/07 12:35:16;;;;;;;3.20;2.00;;;;;;;;;;4990263;28;20042;-73
2023/09/07 12:37:42;;;;;;;3.13;2.00;;;;;;;;;;4988094;28;20042;-73
2023/09/07 12:40:12;;;;;;;5.22;2.35;;;;;;;;;;4988460;28;20534;-73
2023/09/07 12:42:42;;;;;;;4.00;2.17;;;;;;;;;;4985050;28;20496;-73
2023/09/07 12:45:12;;;;;;;3.50;2.38;;;;;;;;;;4989173;28;20495;-73
2023/09/07 12:47:39;;;;;;;4.38;2.13;;;;;;;;;;4986276;28;20033;-73
2023/09/07 12:50:06;;;;;;;3.47;1.95;;;;;;;;;;4989023;28;20042;-73
2023/09/07 12:52:34;;;;;;;6.28;2.53;;;;;;;;;;4981711;28;20034;-73
2023/09/07 12:55:00;;;;;;;4.07;2.42;;;;;;;;;;4989011;28;20041;-73
2023/09/07 12:57:26;;;;;;;3.65;2.00;;;;;;;;;;4984060;28;20035;-73
2023/09/07 12:59:52;;;;;;;3.67;2.25;;;;;;;;;;4986690;28;20053;-73
2023/09/07 13:02:18;;;;;;;2.78;2.33;;;;;;;;;;4984577;28;20038;-73
2023/09/07 13:04:44;;;;;;;5.50;2.38;;;;;;;;;;4985841;28;20492;-73
2023/09/07 13:07:10;;;;;;;4.80;2.10;;;;;;;;;;4989502;28;20108;-73
2023/09/07 13:09:36;;;;;;;7.55;2.25;;;;;;;;;;4988214;28;20046;-73
2023/09/07 13:12:02;;;;;;;4.90;2.20;;;;;;;;;;4992533;28;20069;-73
2023/09/07 13:14:28;;;;;;;2.70;2.33;;;;;;;;;;4987386;28;20381;-74
2023/09/07 13:16:54;;;;;;;5.65;2.55;;;;;;;;;;4986466;28;20030;-73
2023/09/07 13:19:20;;;;;;;3.50;1.90;;;;;;;;;;4987067;28;20038;-73
2023/09/07 13:21:46;;;;;;;7.22;2.47;;;;;;;;;;4987464;28;20046;-73
2023/09/07 13:24:12;;;;;;;2.80;2.25;;;;;;;;;;4982430;28;20460;-73
2023/09/07 13:26:38;;;;;;;5.35;2.33;;;;;;;;;;4988270;28;20066;-73
2023/09/07 13:29:04;;;;;;;6.10;2.05;;;;;;;;;;4988871;28;20042;-73
2023/09/07 13:31:30;;;;;;;5.70;2.72;;;;;;;;;;4989871;28;20041;-73
2023/09/07 13:33:56;;;;;;;5.28;2.13;;;;;;;;;;4977072;28;20023;-85
2023/09/07 13:36:22;;;;;;;3.78;2.00;;;;;;;;;;4985476;28;20035;-86
2023/09/07 13:38:48;;;;;;;3.70;2.25;;;;;;;;;;4978028;28;20249;-83
2023/09/07 13:41:15;;;;;;;3.05;2.28;;;;;;;;;;4988975;28;20089;-84
2023/09/07 13:43:41;;;;;;;4.05;2.00;;;;;;;;;;4993410;28;20026;-83
2023/09/07 13:46:07;;;;;;;4.55;2.17;;;;;;;;;;4983349;28;20034;-83
2023/09/07 13:48:33;;;;;;;3.63;1.90;;;;;;;;;;4986516;28;20030;-86
2023/09/07 13:50:59;;;;;;;5.20;2.25;;;;;;;;;;4986326;28;20084;-83
2023/09/07 13:53:25;;;;;;;2.60;1.90;;;;;;;;;;4988779;28;20030;-85
2023/09/07 13:55:51;;;;;;;3.20;2.22;;;;;;;;;;4984440;28;20041;-86
2023/09/07 13:58:17;;;;;;;3.80;2.20;;;;;;;;;;4997932;28;20439;-83
2023/09/07 14:00:43;;;;;;;4.85;2.13;;;;;;;;;;4982735;28;20084;-82
2023/09/07 14:03:09;;;;;;;2.88;2.45;;;;;;;;;;4979617;28;20093;-81
2023/09/07 14:05:35;;;;;;;3.40;2.08;;;;;;;;;;4976018;28;20038;-86
2023/09/07 14:08:01;;;;;;;3.60;2.30;;;;;;;;;;4983989;28;20045;-87
2023/09/07 14:10:27;;;;;;;5.35;2.47;;;;;;;;;;4982846;28;20262;-88
2023/09/07 14:12:53;;;;;;;6.32;2.40;;;;;;;;;;4983013;28;20514;-88
2023/09/07 14:15:19;;;;;;;7.35;2.17;;;;;;;;;;4978031;28;20054;-87
2023/09/07 14:17:45;;;;;;;3.38;2.17;;;;;;;;;;4985757;28;20061;-85
2023/09/07 14:20:12;;;;;;;3.60;2.28;;;;;;;;;;4982806;28;20167;-85
2023/09/07 14:22:38;;;;;;;5.50;2.35;;;;;;;;;;4976300;28;20046;-85
2023/09/07 14:25:04;;;;;;;7.80;2.20;;;;;;;;;;4977154;28;20038;-87
2023/09/07 14:27:30;;;;;;;3.35;2.40;;;;;;;;;;4984774;28;20027;-88
2023/09/07 14:29:56;;;;;;;4.63;2.10;;;;;;;;;;4980993;28;20045;-86
2023/09/07 14:32:22;;;;;;;2.80;2.00;;;;;;;;;;4976726;28;20035;-82
2023/09/07 14:34:48;;;;;;;6.18;2.40;;;;;;;;;;4986419;28;20023;-90
2023/09/07 14:37:14;;;;;;;8.50;2.90;;;;;;;;;;4982590;28;20503;-90
2023/09/07 14:39:46;;;;;;;6.60;2.13;;;;;;;;;;4985924;28;20113;-90